createdAt,value
2023-04-14T00:02:02.533Z,4.90
2023-04-14T00:04:07.832Z,4.90
2023-04-14T00:06:11.581Z,4.80
2023-04-14T00:08:15.173Z,4.80
2023-04-14T00:10:18.977Z,4.80
2023-04-14T00:12:22.304Z,4.70
2023-04-14T00:14:25.921Z,4.80
2023-04-14T00:16:29.440Z,4.80
2023-04-14T00:18:33.159Z,4.80
2023-04-14T00:20:38.090Z,4.80
2023-04-14T00:22:41.897Z,4.80
2023-04-14T00:24:45.526Z,4.90
2023-04-14T00:26:49.021Z,4.80
2023-04-14T00:28:52.493Z,4.80
2023-04-14T00:30:55.870Z,4.80
2023-04-14T00:33:02.407Z,4.80
2023-04-14T00:35:06.459Z,4.70
2023-04-14T00:37:11.316Z,4.70
2023-04-14T00:39:14.916Z,4.80
2023-04-14T00:41:18.769Z,4.70
2023-04-14T00:43:22.268Z,4.80
2023-04-14T00:45:27.652Z,4.90
2023-04-14T00:47:31.386Z,4.80
2023-04-14T00:49:34.908Z,4.90
2023-04-14T00:51:39.113Z,4.80
2023-04-14T00:53:44.238Z,4.70
2023-04-14T00:55:48.096Z,4.80
2023-04-14T00:57:51.651Z,4.80
2023-04-14T00:59:55.549Z,4.80
2023-04-14T01:01:59.833Z,4.80
2023-04-14T01:04:04.522Z,4.80
2023-04-14T01:06:08.329Z,4.70
2023-04-14T01:08:12.270Z,4.70
2023-04-14T01:10:17.264Z,4.80
2023-04-14T01:12:34.337Z,4.70
2023-04-14T01:14:51.550Z,4.60
2023-04-14T01:17:00.385Z,4.60
2023-04-14T01:19:13.040Z,4.60
2023-04-14T01:21:21.899Z,4.70
2023-04-14T01:23:27.751Z,4.60
2023-04-14T01:26:01.477Z,4.60
2023-04-14T01:28:22.700Z,4.50
2023-04-14T01:30:43.138Z,4.50
2023-04-14T01:32:49.985Z,4.60
2023-04-14T01:34:58.150Z,4.70
2023-04-14T01:37:07.723Z,4.60
2023-04-14T01:39:14.755Z,4.60
2023-04-14T01:41:22.890Z,4.50
2023-04-14T01:43:30.538Z,4.70
2023-04-14T01:45:39.313Z,4.70
2023-04-14T01:47:44.684Z,4.80
2023-04-14T01:49:53.843Z,4.80
2023-04-14T01:51:57.778Z,4.70
2023-04-14T01:54:03.118Z,4.70
2023-04-14T01:56:08.980Z,4.70
2023-04-14T01:58:13.624Z,4.70
2023-04-14T02:00:19.681Z,4.70
2023-04-14T02:02:27.099Z,4.70
2023-04-14T02:04:32.388Z,4.60
2023-04-14T02:06:39.067Z,4.70
2023-04-14T02:08:43.707Z,4.80
2023-04-14T02:10:49.527Z,4.80
2023-04-14T02:12:56.341Z,4.80
2023-04-14T02:15:01.156Z,4.80
2023-04-14T02:17:05.372Z,4.90
2023-04-14T02:19:09.177Z,4.90
2023-04-14T02:21:16.624Z,4.90
2023-04-14T02:23:21.895Z,4.90
2023-04-14T02:25:30.816Z,4.90
2023-04-14T02:27:39.512Z,4.90
2023-04-14T02:29:46.614Z,4.90
2023-04-14T02:32:02.192Z,4.80
2023-04-14T02:34:09.726Z,4.80
2023-04-14T02:36:18.618Z,4.90
2023-04-14T02:38:30.434Z,5.00
2023-04-14T02:40:39.480Z,5.00
2023-04-14T02:42:46.359Z,5.10
2023-04-14T02:44:52.066Z,5.20
2023-04-14T02:47:04.192Z,5.20
2023-04-14T02:49:11.048Z,5.10
2023-04-14T02:51:16.797Z,5.00
2023-04-14T02:53:24.979Z,5.10
2023-04-14T02:55:29.762Z,5.10
2023-04-14T02:57:35.473Z,5.30
2023-04-14T02:59:41.331Z,5.30
2023-04-14T03:01:45.680Z,5.30
2023-04-14T03:03:50.222Z,5.40
2023-04-14T03:05:54.388Z,5.30
2023-04-14T03:07:58.234Z,5.30
2023-04-14T03:10:04.288Z,5.30
2023-04-14T03:12:09.625Z,5.30
2023-04-14T03:14:13.935Z,5.20
2023-04-14T03:16:19.402Z,5.20
2023-04-14T03:18:23.988Z,5.30
2023-04-14T03:20:27.811Z,5.30
2023-04-14T03:22:34.569Z,5.10
2023-04-14T03:24:40.012Z,5.10
2023-04-14T03:26:46.483Z,5.00
2023-04-14T03:28:53.732Z,5.10
2023-04-14T03:31:01.202Z,5.10
2023-04-14T03:33:10.193Z,5.10
2023-04-14T03:35:15.969Z,5.20
2023-04-14T03:37:22.381Z,5.30
2023-04-14T03:39:31.200Z,5.20
2023-04-14T03:41:38.000Z,5.20
2023-04-14T03:43:43.888Z,5.20
2023-04-14T03:45:49.300Z,5.30
2023-04-14T03:47:57.810Z,5.30
2023-04-14T03:50:03.682Z,5.30
2023-04-14T03:52:09.761Z,5.20
2023-04-14T03:54:15.918Z,5.20
2023-04-14T03:56:20.893Z,5.30
2023-04-14T03:58:25.953Z,5.30
2023-04-14T04:00:32.319Z,5.30
2023-04-14T04:02:38.528Z,5.10
2023-04-14T04:04:42.807Z,5.20
2023-04-14T04:06:46.450Z,5.20
2023-04-14T04:08:51.775Z,5.30
2023-04-14T04:10:57.532Z,5.30
2023-04-14T04:13:02.157Z,5.30
2023-04-14T04:15:06.097Z,5.20
2023-04-14T04:17:13.713Z,5.20
2023-04-14T04:19:19.536Z,5.30
2023-04-14T04:21:23.686Z,5.30
2023-04-14T04:23:29.751Z,5.40
2023-04-14T04:25:33.508Z,5.40
2023-04-14T04:27:37.235Z,5.40
2023-04-14T04:29:41.464Z,5.30
2023-04-14T04:31:45.180Z,5.30
2023-04-14T04:33:50.144Z,5.20
2023-04-14T04:35:56.320Z,5.30
2023-04-14T04:38:02.074Z,5.30
2023-04-14T04:40:05.760Z,5.30
2023-04-14T04:42:09.358Z,5.30
2023-04-14T04:44:12.989Z,5.20
2023-04-14T04:46:43.678Z,5.10
2023-04-14T04:48:47.223Z,5.20
2023-04-14T04:50:52.025Z,5.30
2023-04-14T04:52:55.504Z,5.30
2023-04-14T04:54:59.187Z,5.20
2023-04-14T04:57:02.575Z,5.30
2023-04-14T04:59:06.832Z,5.30
2023-04-14T05:01:11.037Z,5.30
2023-04-14T05:03:14.672Z,5.50
2023-04-14T05:05:18.231Z,5.60
2023-04-14T05:07:23.153Z,5.70
2023-04-14T05:09:26.619Z,5.60
2023-04-14T05:11:30.032Z,5.50
2023-04-14T05:13:34.320Z,5.50
2023-04-14T05:15:38.997Z,5.40
2023-04-14T05:17:43.896Z,5.40
2023-04-14T05:19:47.275Z,5.50
2023-04-14T05:21:51.805Z,5.40
2023-04-14T05:23:56.677Z,5.50
2023-04-14T05:26:22.296Z,5.50
2023-04-14T05:28:26.437Z,5.50
2023-04-14T05:30:29.943Z,5.70
2023-04-14T05:32:33.539Z,5.60
2023-04-14T05:34:37.012Z,5.50
2023-04-14T05:36:40.886Z,5.40
2023-04-14T05:38:44.645Z,5.50
2023-04-14T05:40:49.875Z,5.60
2023-04-14T05:42:55.356Z,5.80
2023-04-14T05:44:59.964Z,5.80
2023-04-14T05:47:03.910Z,5.60
2023-04-14T05:49:07.451Z,5.60
2023-04-14T05:51:11.030Z,5.60
2023-04-14T05:53:15.334Z,5.80
2023-04-14T05:55:19.427Z,5.80
2023-04-14T05:57:24.279Z,5.70
2023-04-14T05:59:27.725Z,5.80
2023-04-14T06:01:31.522Z,5.80
2023-04-14T06:03:37.065Z,5.70
2023-04-14T06:05:42.381Z,5.70
2023-04-14T06:07:47.103Z,5.70
2023-04-14T06:09:50.652Z,5.50
2023-04-14T06:11:53.963Z,5.60
2023-04-14T06:13:59.117Z,5.60
2023-04-14T06:16:02.987Z,5.60
2023-04-14T06:18:06.462Z,5.50
2023-04-14T06:20:11.045Z,5.60
2023-04-14T06:22:17.076Z,5.80
2023-04-14T06:24:20.835Z,5.90
2023-04-14T06:26:24.369Z,5.80
2023-04-14T06:28:28.121Z,5.80
2023-04-14T06:30:35.941Z,6.10
2023-04-14T06:32:39.967Z,6.20
2023-04-14T06:34:43.438Z,6.20
2023-04-14T06:36:46.875Z,6.30
2023-04-14T06:38:50.916Z,6.30
2023-04-14T06:40:55.697Z,6.40
2023-04-14T06:42:59.459Z,6.50
2023-04-14T06:45:02.850Z,6.40
2023-04-14T06:47:08.209Z,6.50
2023-04-14T06:49:13.055Z,6.60
2023-04-14T06:51:16.954Z,6.50
2023-04-14T06:53:20.928Z,6.40
2023-04-14T06:55:24.455Z,6.20
2023-04-14T06:57:30.643Z,6.20
2023-04-14T06:59:34.379Z,6.30
2023-04-14T07:01:37.862Z,6.50
2023-04-14T07:03:42.856Z,6.30
2023-04-14T07:05:46.257Z,6.30
2023-04-14T07:07:49.791Z,6.30
2023-04-14T07:09:53.163Z,6.10
2023-04-14T07:11:58.683Z,6.00
2023-04-14T07:14:02.247Z,6.00
2023-04-14T07:16:07.613Z,6.10
2023-04-14T07:18:11.409Z,6.20
2023-04-14T07:20:16.599Z,6.00
2023-04-14T07:22:20.086Z,6.00
2023-04-14T07:24:23.896Z,6.00
2023-04-14T07:26:27.381Z,6.00
2023-04-14T07:28:31.189Z,6.10
2023-04-14T07:30:35.083Z,6.00
2023-04-14T07:32:38.731Z,5.90
2023-04-14T07:34:44.157Z,5.90
2023-04-14T07:36:49.976Z,5.80
2023-04-14T07:38:53.619Z,5.90
2023-04-14T07:40:57.637Z,5.90
2023-04-14T07:43:01.210Z,6.00
2023-04-14T07:45:04.990Z,5.80
2023-04-14T07:47:10.526Z,5.90
2023-04-14T07:49:13.848Z,6.00
2023-04-14T07:51:17.200Z,6.10
2023-04-14T07:53:21.980Z,6.00
2023-04-14T07:55:26.994Z,6.10
2023-04-14T07:57:31.062Z,6.00
2023-04-14T07:59:34.770Z,5.80
2023-04-14T08:01:38.500Z,5.80
2023-04-14T08:03:45.159Z,5.90
2023-04-14T08:05:49.027Z,5.80
2023-04-14T08:07:52.477Z,6.00
2023-04-14T08:09:57.234Z,6.10
2023-04-14T08:12:03.306Z,6.20
2023-04-14T08:14:06.598Z,6.20
2023-04-14T08:16:10.193Z,6.20
2023-04-14T08:18:13.789Z,6.20
2023-04-14T08:20:18.138Z,6.20
2023-04-14T08:22:21.951Z,6.10
2023-04-14T08:24:25.748Z,6.10
2023-04-14T08:26:33.132Z,6.20
2023-04-14T08:28:37.178Z,6.10
2023-04-14T08:30:41.488Z,6.20
2023-04-14T08:32:45.000Z,6.20
2023-04-14T08:35:36.350Z,6.20
2023-04-14T08:37:12.377Z,6.30
2023-04-14T08:39:16.322Z,6.20
2023-04-14T08:41:21.412Z,6.30
2023-04-14T08:43:26.520Z,6.20
2023-04-14T08:45:31.969Z,6.20
2023-04-14T08:47:36.813Z,6.30
2023-04-14T08:49:43.691Z,6.50
2023-04-14T08:51:48.872Z,6.70
2023-04-14T08:53:54.536Z,6.70
2023-04-14T08:56:00.430Z,6.70
2023-04-14T08:58:05.762Z,6.70
2023-04-14T09:00:12.437Z,6.70
2023-04-14T09:02:16.533Z,6.70
2023-04-14T09:04:21.369Z,6.80
2023-04-14T09:06:25.480Z,6.90
2023-04-14T09:08:34.364Z,7.00
2023-04-14T09:10:41.000Z,7.20
2023-04-14T09:12:45.482Z,7.20
2023-04-14T09:14:51.584Z,7.10
2023-04-14T09:16:57.039Z,7.20
2023-04-14T09:19:06.487Z,7.30
2023-04-14T09:21:31.185Z,7.30
2023-04-14T09:23:35.217Z,7.40
2023-04-14T09:25:40.325Z,7.50
2023-04-14T09:27:44.298Z,7.70
2023-04-14T09:29:49.009Z,7.70
2023-04-14T09:31:53.291Z,7.60
2023-04-14T09:33:58.372Z,7.50
2023-04-14T09:36:02.031Z,7.60
2023-04-14T09:38:06.864Z,7.60
2023-04-14T09:40:11.301Z,8.00
2023-04-14T09:42:17.028Z,8.30
2023-04-14T09:44:20.629Z,8.00
2023-04-14T09:46:24.670Z,8.00
2023-04-14T09:48:28.312Z,8.20
2023-04-14T09:50:33.649Z,8.30
2023-04-14T09:52:41.548Z,8.20
2023-04-14T09:54:45.648Z,8.30
2023-04-14T09:56:49.070Z,8.60
2023-04-14T09:58:52.391Z,8.90
2023-04-14T10:00:55.996Z,8.90
2023-04-14T10:03:01.659Z,8.70
2023-04-14T10:05:07.203Z,8.70
2023-04-14T10:07:12.378Z,8.90
2023-04-14T10:09:23.422Z,9.20
2023-04-14T10:11:29.827Z,9.40
2023-04-14T10:13:33.572Z,9.10
2023-04-14T10:15:37.705Z,9.10
2023-04-14T10:17:42.446Z,9.00
2023-04-14T10:19:45.900Z,9.20
2023-04-14T10:21:49.280Z,9.40
2023-04-14T10:23:56.609Z,9.60
2023-04-14T10:26:00.762Z,9.70
2023-04-14T10:28:04.511Z,9.60
2023-04-14T10:30:10.339Z,9.70
2023-04-14T10:32:17.807Z,10.10
2023-04-14T10:34:22.961Z,10.00
2023-04-14T10:36:27.977Z,10.00
2023-04-14T10:38:44.691Z,9.80
2023-04-14T10:40:52.568Z,10.00
2023-04-14T10:42:57.433Z,10.20
2023-04-14T10:45:08.645Z,10.20
2023-04-14T10:47:12.464Z,10.30
2023-04-14T10:49:16.118Z,10.30
2023-04-14T10:51:21.431Z,10.40
2023-04-14T10:53:27.181Z,10.30
2023-04-14T10:55:32.018Z,10.50
2023-04-14T10:57:43.672Z,10.30
2023-04-14T10:59:49.295Z,10.70
2023-04-14T11:01:56.680Z,10.90
2023-04-14T11:04:12.989Z,11.00
2023-04-14T11:06:51.438Z,11.10
2023-04-14T11:08:56.563Z,11.10
2023-04-14T11:11:04.461Z,10.70
2023-04-14T11:13:13.714Z,10.70
2023-04-14T11:15:17.904Z,10.50
2023-04-14T11:17:22.950Z,10.90
2023-04-14T11:19:27.074Z,9.90
2023-04-14T11:21:31.569Z,9.80
2023-04-14T11:23:36.484Z,9.80
2023-04-14T11:25:41.345Z,9.70
2023-04-14T11:27:45.600Z,9.80
2023-04-14T11:29:51.321Z,9.60
2023-04-14T11:32:06.720Z,9.70
2023-04-14T11:34:10.270Z,10.00
2023-04-14T11:36:13.763Z,9.60
2023-04-14T11:38:17.180Z,9.80
2023-04-14T11:40:20.888Z,9.60
2023-04-14T11:42:24.210Z,9.60
2023-04-14T11:44:27.793Z,9.90
2023-04-14T11:46:33.318Z,10.00
2023-04-14T11:48:37.049Z,10.10
2023-04-14T11:50:41.472Z,10.50
2023-04-14T11:52:47.615Z,10.20
2023-04-14T11:54:51.358Z,10.00
2023-04-14T11:56:54.827Z,10.00
2023-04-14T11:59:02.311Z,10.00
2023-04-14T12:01:06.148Z,10.00
2023-04-14T12:03:11.296Z,10.00
2023-04-14T12:05:19.839Z,10.40
2023-04-14T12:07:24.389Z,10.60
2023-04-14T12:09:31.390Z,10.70
2023-04-14T12:11:34.953Z,10.70
2023-04-14T12:13:42.383Z,10.60
2023-04-14T12:15:46.632Z,10.70
2023-04-14T12:17:49.973Z,10.60
2023-04-14T12:19:54.707Z,10.50
2023-04-14T12:21:58.218Z,10.10
2023-04-14T12:24:02.693Z,10.20
2023-04-14T12:26:11.596Z,10.40
2023-04-14T12:28:19.649Z,10.60
2023-04-14T12:30:23.854Z,10.80
2023-04-14T12:32:29.973Z,10.90
2023-04-14T12:34:33.609Z,10.80
2023-04-14T12:36:50.222Z,10.90
2023-04-14T12:38:54.946Z,10.90
2023-04-14T12:40:58.325Z,11.20
2023-04-14T12:43:02.072Z,11.40
2023-04-14T12:45:05.843Z,11.40
2023-04-14T12:47:09.156Z,11.20
2023-04-14T12:49:30.989Z,11.00
2023-04-14T12:51:41.833Z,11.00
2023-04-14T12:53:46.528Z,11.00
2023-04-14T12:55:50.033Z,11.10
2023-04-14T12:57:54.597Z,11.00
2023-04-14T12:59:57.880Z,10.90
2023-04-14T13:02:01.369Z,10.70
2023-04-14T13:04:06.636Z,10.70
2023-04-14T13:06:11.553Z,10.90
2023-04-14T13:08:16.228Z,10.80
2023-04-14T13:10:19.634Z,10.80
2023-04-14T13:12:23.172Z,10.70
2023-04-14T13:14:26.476Z,11.10
2023-04-14T13:16:30.217Z,11.10
2023-04-14T13:18:33.747Z,11.10
2023-04-14T13:20:37.382Z,11.20
2023-04-14T13:22:40.776Z,11.30
2023-04-14T13:24:46.175Z,10.60
2023-04-14T13:26:49.615Z,11.00
2023-04-14T13:28:53.237Z,11.30
2023-04-14T13:30:58.140Z,11.50
2023-04-14T13:33:01.796Z,11.60
2023-04-14T13:35:05.695Z,11.60
2023-04-14T13:37:09.119Z,11.60
2023-04-14T13:39:12.687Z,11.70
2023-04-14T13:41:19.637Z,11.60
2023-04-14T13:43:23.310Z,11.70
2023-04-14T13:45:27.268Z,11.80
2023-04-14T13:47:31.124Z,11.70
2023-04-14T13:49:34.684Z,11.70
2023-04-14T13:51:37.995Z,11.40
2023-04-14T13:53:41.346Z,11.70
2023-04-14T13:55:44.709Z,11.60
2023-04-14T13:57:49.620Z,11.40
2023-04-14T13:59:52.912Z,11.40
2023-04-14T14:01:56.383Z,11.40
2023-04-14T14:04:00.155Z,11.40
2023-04-14T14:06:03.633Z,11.30
2023-04-14T14:08:07.146Z,11.60
2023-04-14T14:10:11.359Z,11.60
2023-04-14T14:12:14.935Z,11.20
2023-04-14T14:14:20.084Z,11.20
2023-04-14T14:18:33.024Z,10.70
2023-04-14T14:20:36.489Z,10.70
2023-04-14T14:22:41.151Z,10.90
2023-04-14T14:24:45.146Z,11.00
2023-04-14T14:26:48.845Z,10.90
2023-04-14T14:28:52.379Z,11.10
2023-04-14T14:30:57.148Z,11.00
2023-04-14T14:33:00.693Z,11.00
2023-04-14T14:35:04.350Z,10.70
2023-04-14T14:37:07.692Z,10.80
2023-04-14T14:39:11.138Z,10.60
2023-04-14T14:41:14.468Z,10.50
2023-04-14T14:43:17.815Z,10.60
2023-04-14T14:45:26.227Z,10.50
2023-04-14T14:47:36.135Z,10.70
2023-04-14T14:49:48.895Z,10.60
2023-04-14T14:52:02.129Z,10.50
2023-04-14T14:54:10.258Z,10.30
2023-04-14T14:56:13.935Z,10.50
2023-04-14T14:58:17.239Z,10.20
2023-04-14T15:00:21.333Z,10.00
2023-04-14T15:02:25.632Z,9.90
2023-04-14T15:04:31.277Z,9.80
2023-04-14T15:06:35.421Z,9.90
2023-04-14T15:08:39.436Z,9.70
2023-04-14T15:10:46.554Z,9.80
2023-04-14T15:12:53.347Z,9.70
2023-04-14T15:14:57.109Z,9.50
2023-04-14T15:17:01.117Z,9.70
2023-04-14T15:19:05.442Z,9.30
2023-04-14T15:21:10.773Z,9.20
2023-04-14T15:23:14.525Z,9.30
2023-04-14T15:25:17.721Z,9.20
2023-04-14T15:27:21.584Z,9.40
2023-04-14T15:29:26.856Z,9.50
2023-04-14T15:31:31.104Z,9.50
2023-04-14T15:33:34.452Z,9.50
2023-04-14T15:35:38.913Z,9.40
2023-04-14T15:37:44.692Z,9.10
2023-04-14T15:39:47.996Z,9.20
2023-04-14T15:41:51.506Z,9.20
2023-04-14T15:43:54.935Z,9.30
2023-04-14T15:45:58.292Z,9.30
2023-04-14T15:48:01.729Z,9.40
2023-04-14T15:50:09.854Z,9.40
2023-04-14T15:52:13.733Z,9.40
2023-04-14T15:54:18.605Z,9.20
2023-04-14T15:56:23.499Z,9.20
2023-04-14T15:58:27.626Z,8.80
2023-04-14T16:00:31.326Z,9.00
2023-04-14T16:02:35.779Z,8.80
2023-04-14T16:04:39.291Z,8.50
2023-04-14T16:06:43.018Z,8.80
2023-04-14T16:08:46.261Z,8.90
2023-04-14T16:10:51.393Z,9.20
2023-04-14T16:12:54.792Z,9.10
2023-04-14T16:14:58.223Z,9.00
2023-04-14T16:17:01.435Z,8.90
2023-04-14T16:19:04.706Z,8.90
2023-04-14T16:21:08.527Z,8.90
2023-04-14T16:23:12.412Z,8.90
2023-04-14T16:25:16.427Z,9.00
2023-04-14T16:27:21.367Z,8.80
2023-04-14T16:29:25.058Z,8.80
2023-04-14T16:31:28.486Z,8.70
2023-04-14T16:33:33.247Z,8.70
2023-04-14T16:35:36.602Z,8.80
2023-04-14T16:37:39.977Z,8.80
2023-04-14T16:39:43.560Z,8.90
2023-04-14T16:41:46.970Z,9.00
2023-04-14T16:43:52.048Z,8.80
2023-04-14T16:46:01.540Z,8.90
2023-04-14T16:48:05.792Z,8.90
2023-04-14T16:50:10.090Z,8.90
2023-04-14T16:52:13.649Z,8.60
2023-04-14T16:54:17.143Z,8.50
2023-04-14T16:56:20.989Z,8.60
2023-04-14T16:58:24.510Z,8.70
2023-04-14T17:00:30.048Z,8.60
2023-04-14T17:02:33.980Z,8.60
2023-04-14T17:04:38.596Z,8.80
2023-04-14T17:06:42.795Z,8.60
2023-04-14T17:08:46.227Z,8.60
2023-04-14T17:10:49.921Z,8.60
2023-04-14T17:12:53.774Z,8.70
2023-04-14T17:14:57.525Z,8.80
2023-04-14T17:17:02.972Z,8.80
2023-04-14T17:19:06.202Z,8.80
2023-04-14T17:21:09.442Z,8.70
2023-04-14T17:23:13.032Z,8.70
2023-04-14T17:25:19.951Z,8.50
2023-04-14T17:27:23.538Z,8.30
2023-04-14T17:29:27.068Z,8.40
2023-04-14T17:31:30.925Z,8.30
2023-04-14T17:33:36.246Z,8.30
2023-04-14T17:35:40.175Z,8.40
2023-04-14T17:37:43.793Z,8.50
2023-04-14T17:39:49.281Z,8.40
2023-04-14T17:41:53.066Z,8.40
2023-04-14T17:43:57.054Z,8.50
2023-04-14T17:46:00.240Z,8.50
2023-04-14T17:48:03.725Z,8.40
2023-04-14T17:50:10.498Z,8.50
2023-04-14T17:52:13.909Z,8.50
2023-04-14T17:54:17.393Z,8.50
2023-04-14T17:56:20.978Z,8.50
2023-04-14T17:58:25.528Z,8.40
2023-04-14T18:00:29.339Z,8.40
2023-04-14T18:02:35.404Z,8.30
2023-04-14T18:04:39.062Z,8.30
2023-04-14T18:06:43.842Z,8.20
2023-04-14T18:08:47.258Z,8.30
2023-04-14T18:10:50.663Z,8.20
2023-04-14T18:12:53.954Z,8.20
2023-04-14T18:14:57.351Z,8.30
2023-04-14T18:17:00.625Z,8.30
2023-04-14T18:19:04.859Z,8.30
2023-04-14T18:21:08.469Z,8.30
2023-04-14T18:23:13.927Z,8.30
2023-04-14T18:25:18.185Z,8.10
2023-04-14T18:29:29.497Z,8.20
2023-04-14T18:31:33.273Z,8.20
2023-04-14T18:33:36.722Z,8.10
2023-04-14T18:35:40.193Z,8.10
2023-04-14T18:37:44.913Z,8.10
2023-04-14T18:39:49.872Z,8.10
2023-04-14T18:41:53.323Z,8.10
2023-04-14T18:43:56.512Z,8.10
2023-04-14T18:46:00.156Z,8.10
2023-04-14T18:48:04.085Z,8.10
2023-04-14T18:50:09.370Z,7.90
2023-04-14T18:52:13.119Z,7.90
2023-04-14T18:54:16.738Z,7.90
2023-04-14T18:56:21.666Z,8.00
2023-04-14T18:58:25.235Z,7.90
2023-04-14T19:00:29.721Z,7.90
2023-04-14T19:02:34.789Z,8.00
2023-04-14T19:04:38.125Z,8.00
2023-04-14T19:06:41.576Z,8.00
2023-04-14T19:08:44.820Z,8.00
2023-04-14T19:10:48.298Z,8.00
2023-04-14T19:12:53.005Z,7.90
2023-04-14T19:14:56.430Z,7.80
2023-04-14T19:17:00.035Z,7.90
2023-04-14T19:19:03.751Z,7.90
2023-04-14T19:21:08.948Z,7.80
2023-04-14T19:23:12.426Z,7.80
2023-04-14T19:25:16.648Z,7.80
2023-04-14T19:27:20.067Z,7.80
2023-04-14T19:29:25.049Z,7.70
2023-04-14T19:31:28.858Z,7.70
2023-04-14T19:33:32.644Z,7.70
2023-04-14T19:35:36.074Z,7.70
2023-04-14T19:37:39.738Z,7.70
2023-04-14T19:39:43.046Z,7.80
2023-04-14T19:41:46.744Z,7.70
2023-04-14T19:43:51.995Z,7.90
2023-04-14T19:45:57.893Z,7.80
2023-04-14T19:48:09.932Z,7.90
2023-04-14T19:50:24.150Z,7.80
2023-04-14T19:52:28.316Z,7.80
2023-04-14T19:54:31.876Z,7.80
2023-04-14T19:56:35.985Z,7.60
2023-04-14T19:58:39.292Z,7.70
2023-04-14T20:00:42.916Z,7.70
2023-04-14T20:02:47.902Z,7.70
2023-04-14T20:04:51.553Z,7.70
2023-04-14T20:06:55.315Z,7.80
2023-04-14T20:08:59.507Z,7.80
2023-04-14T20:11:03.104Z,7.70
2023-04-14T20:13:07.431Z,7.80
2023-04-14T20:15:11.978Z,7.80
2023-04-14T20:17:15.259Z,7.80
2023-04-14T20:19:21.085Z,7.80
2023-04-14T20:21:24.378Z,7.80
2023-04-14T20:23:27.926Z,7.80
2023-04-14T20:25:31.970Z,7.70
2023-04-14T20:27:35.196Z,7.80
2023-04-14T20:29:38.562Z,7.70
2023-04-14T20:31:42.762Z,7.80
2023-04-14T20:33:46.034Z,7.60
2023-04-14T20:35:53.400Z,7.70
2023-04-14T20:37:57.384Z,7.80
2023-04-14T20:40:00.899Z,7.80
2023-04-14T20:42:04.442Z,7.80
2023-04-14T20:44:08.373Z,7.60
2023-04-14T20:46:11.866Z,7.60
2023-04-14T20:48:15.066Z,7.60
2023-04-14T20:50:18.832Z,7.60
2023-04-14T20:52:23.934Z,7.70
2023-04-14T20:54:28.194Z,7.70
2023-04-14T20:56:32.048Z,7.70
2023-04-14T20:58:35.255Z,7.70
2023-04-14T21:00:38.561Z,7.70
2023-04-14T21:02:42.307Z,7.60
2023-04-14T21:04:46.424Z,7.80
2023-04-14T21:06:50.319Z,7.70
2023-04-14T21:08:55.189Z,7.70
2023-04-14T21:11:14.985Z,7.80
2023-04-14T21:15:27.089Z,7.70
2023-04-14T21:15:56.260Z,7.70
2023-04-14T21:18:01.093Z,7.70
2023-04-14T21:20:05.854Z,7.70
2023-04-14T21:22:09.722Z,7.70
2023-04-14T21:24:15.054Z,7.70
2023-04-14T21:26:18.546Z,7.70
2023-04-14T21:28:22.286Z,7.70
2023-04-14T21:30:25.940Z,7.60
2023-04-14T21:32:29.682Z,7.50
2023-04-14T21:34:33.910Z,7.60
2023-04-14T21:36:37.860Z,7.60
2023-04-14T21:38:41.783Z,7.70
2023-04-14T21:40:46.917Z,7.60
2023-04-14T21:42:50.882Z,7.60
2023-04-14T21:44:58.328Z,7.60
2023-04-14T21:47:01.848Z,7.70
2023-04-14T21:49:05.216Z,7.70
2023-04-14T21:51:09.081Z,7.60
2023-04-14T21:53:12.519Z,7.70
2023-04-14T21:55:16.435Z,7.70
2023-04-14T21:57:42.860Z,7.60
2023-04-14T21:59:44.419Z,7.70
2023-04-14T22:01:49.428Z,7.40
2023-04-14T22:03:54.290Z,7.40
2023-04-14T22:05:59.942Z,7.20
2023-04-14T22:08:03.445Z,7.20
2023-04-14T22:10:07.789Z,7.30
2023-04-14T22:12:11.173Z,7.40
2023-04-14T22:14:16.074Z,7.50
2023-04-14T22:16:20.046Z,7.60
2023-04-14T22:18:24.734Z,7.50
2023-04-14T22:20:28.011Z,7.60
2023-04-14T22:22:31.607Z,7.60
2023-04-14T22:24:34.806Z,7.70
2023-04-14T22:26:39.072Z,7.60
2023-04-14T22:28:42.504Z,7.60
2023-04-14T22:30:47.263Z,7.70
2023-04-14T22:32:50.927Z,7.70
2023-04-14T22:34:54.361Z,7.60
2023-04-14T22:36:58.956Z,7.70
2023-04-14T22:39:02.548Z,7.70
2023-04-14T22:41:06.345Z,7.60
2023-04-14T22:43:10.990Z,7.70
2023-04-14T22:45:14.635Z,7.60
2023-04-14T22:47:19.374Z,7.50
2023-04-14T22:49:22.859Z,7.60
2023-04-14T22:51:26.617Z,7.70
2023-04-14T22:53:30.594Z,7.60
2023-04-14T22:55:34.367Z,7.60
2023-04-14T22:57:37.574Z,7.60
2023-04-14T22:59:41.198Z,7.60
2023-04-14T23:01:44.476Z,7.60
2023-04-14T23:03:52.441Z,7.60
2023-04-14T23:05:55.836Z,7.60
2023-04-14T23:07:59.090Z,7.70
2023-04-14T23:10:02.453Z,7.60
2023-04-14T23:12:06.359Z,7.60
2023-04-14T23:14:09.722Z,7.70
2023-04-14T23:16:13.166Z,7.60
2023-04-14T23:18:16.616Z,7.60
2023-04-14T23:20:22.064Z,7.60
2023-04-14T23:22:26.753Z,7.70
2023-04-14T23:24:30.175Z,7.70
2023-04-14T23:26:33.683Z,7.60
2023-04-14T23:28:37.102Z,7.60
2023-04-14T23:30:42.104Z,7.60
2023-04-14T23:32:45.686Z,7.60
2023-04-14T23:34:48.944Z,7.70
2023-04-14T23:36:53.985Z,7.60
2023-04-14T23:38:57.364Z,7.60
2023-04-14T23:41:00.743Z,7.50
2023-04-14T23:43:05.295Z,7.40
2023-04-14T23:45:10.428Z,7.50
2023-04-14T23:47:14.858Z,7.50
2023-04-14T23:49:33.285Z,7.50
2023-04-14T23:51:38.651Z,7.60
2023-04-14T23:53:43.710Z,7.40
2023-04-14T23:55:47.849Z,7.30
